createdAt,value
2019-05-02T00:00:15.728Z,6.47
2019-05-02T00:02:52.880Z,5.40
2019-05-02T00:05:27.277Z,5.90
2019-05-02T00:07:59.839Z,5.83
2019-05-02T00:10:29.718Z,5.53
2019-05-02T00:12:59.696Z,5.30
2019-05-02T00:15:33.183Z,5.50
2019-05-02T00:18:01.341Z,5.60
2019-05-02T00:20:40.079Z,5.43
2019-05-02T00:23:11.765Z,5.40
2019-05-02T00:25:41.206Z,5.57
2019-05-02T00:28:12.362Z,5.63
2019-05-02T00:30:41.524Z,5.60
2019-05-02T00:33:10.746Z,5.73
2019-05-02T00:35:46.074Z,6.67
2019-05-02T00:38:38.452Z,6.27
2019-05-02T00:41:15.770Z,6.30
2019-05-02T00:50:50.964Z,6.90
2019-05-02T00:53:18.457Z,7.23
2019-05-02T00:55:49.762Z,7.80
2019-05-02T00:58:33.092Z,6.90
2019-05-02T01:01:42.555Z,8.27
2019-05-02T01:04:32.723Z,8.13
2019-05-02T01:07:02.023Z,8.80
2019-05-02T01:09:32.903Z,9.63
2019-05-02T01:12:03.259Z,9.47
2019-05-02T01:14:33.341Z,9.80
2019-05-02T01:17:02.801Z,10.00
2019-05-02T01:19:32.429Z,10.63
2019-05-02T01:22:01.542Z,10.63
2019-05-02T01:24:34.262Z,10.47
2019-05-02T01:27:36.035Z,10.50
2019-05-02T01:30:37.061Z,9.33
2019-05-02T01:33:09.973Z,9.17
2019-05-02T01:35:53.740Z,9.33
2019-05-02T01:38:31.816Z,8.90
2019-05-02T01:41:01.028Z,8.47
2019-05-02T01:43:31.954Z,9.87
2019-05-02T01:46:01.016Z,8.20
2019-05-02T01:48:30.522Z,8.80
2019-05-02T01:51:04.221Z,9.17
2019-05-02T01:53:34.143Z,8.80
2019-05-02T01:56:02.091Z,9.90
2019-05-02T01:58:31.205Z,10.20
2019-05-02T02:01:00.622Z,10.00
2019-05-02T02:03:30.251Z,10.20
2019-05-02T02:06:02.939Z,10.00
2019-05-02T02:08:32.507Z,11.30
2019-05-02T02:11:01.847Z,11.53
2019-05-02T02:13:35.939Z,12.37
2019-05-02T02:16:04.440Z,11.97
2019-05-02T02:18:36.539Z,11.57
2019-05-02T02:21:15.350Z,11.43
2019-05-02T02:23:53.871Z,12.07
2019-05-02T02:26:24.483Z,11.77
2019-05-02T02:28:53.630Z,12.43
2019-05-02T02:31:39.649Z,11.77
2019-05-02T02:34:06.643Z,12.43
2019-05-02T02:36:36.464Z,12.93
2019-05-02T02:39:14.167Z,12.30
2019-05-02T02:41:39.187Z,13.50
2019-05-02T02:44:33.700Z,12.83
2019-05-02T02:47:01.412Z,11.97
2019-05-02T02:49:31.206Z,13.40
2019-05-02T02:52:05.014Z,13.33
2019-05-02T02:54:36.508Z,13.57
2019-05-02T02:57:02.353Z,13.30
2019-05-02T02:59:31.354Z,12.70
2019-05-02T03:02:09.005Z,13.90
2019-05-02T03:04:31.498Z,13.97
2019-05-02T03:07:00.914Z,15.27
2019-05-02T03:09:30.000Z,13.60
2019-05-02T03:12:17.313Z,13.17
2019-05-02T03:14:50.977Z,13.90
2019-05-02T03:17:25.758Z,14.23
2019-05-02T03:19:54.464Z,14.10
2019-05-02T03:22:22.073Z,13.77
2019-05-02T03:24:51.683Z,14.03
2019-05-02T03:27:21.130Z,13.80
2019-05-02T03:29:50.863Z,14.00
2019-05-02T03:32:31.362Z,13.43
2019-05-02T03:34:53.735Z,13.87
2019-05-02T03:37:22.638Z,13.03
2019-05-02T03:39:57.420Z,14.20
2019-05-02T03:42:22.719Z,13.67
2019-05-02T03:44:56.260Z,14.23
2019-05-02T03:47:22.737Z,14.53
2019-05-02T03:49:52.822Z,12.90
2019-05-02T03:52:21.966Z,12.93
2019-05-02T03:54:52.509Z,13.17
2019-05-02T03:57:32.143Z,13.77
2019-05-02T03:59:53.155Z,13.63
2019-05-02T04:02:22.660Z,13.97
2019-05-02T04:04:54.128Z,14.43
2019-05-02T04:07:23.013Z,14.60
2019-05-02T04:09:52.395Z,14.93
2019-05-02T04:12:22.027Z,14.90
2019-05-02T04:14:55.451Z,14.77
2019-05-02T04:17:28.547Z,16.13
2019-05-02T04:19:53.743Z,14.90
2019-05-02T04:22:23.780Z,16.23
2019-05-02T04:24:56.430Z,16.57
2019-05-02T04:27:27.676Z,15.47
2019-05-02T04:29:56.117Z,16.40
2019-05-02T04:32:25.453Z,14.97
2019-05-02T04:34:57.742Z,14.73
2019-05-02T04:37:25.656Z,15.13
2019-05-02T04:40:00.712Z,15.30
2019-05-02T04:42:29.432Z,14.67
2019-05-02T04:45:16.255Z,14.73
2019-05-02T04:47:30.162Z,15.03
2019-05-02T04:49:59.181Z,14.50
2019-05-02T04:52:28.878Z,14.90
2019-05-02T04:55:08.167Z,14.87
2019-05-02T04:57:36.982Z,13.97
2019-05-02T05:00:06.204Z,14.63
2019-05-02T05:02:36.543Z,14.23
2019-05-02T05:05:02.484Z,14.13
2019-05-02T05:07:41.073Z,14.50
2019-05-02T05:10:03.628Z,13.80
2019-05-02T05:12:37.992Z,14.57
2019-05-02T05:15:04.143Z,14.43
2019-05-02T05:17:34.229Z,13.50
2019-05-02T05:20:10.936Z,15.03
2019-05-02T05:22:38.711Z,14.30
2019-05-02T05:25:12.238Z,13.67
2019-05-02T05:27:42.455Z,15.07
2019-05-02T05:30:15.775Z,14.37
2019-05-02T05:32:43.037Z,14.63
2019-05-02T05:35:13.241Z,14.23
2019-05-02T05:37:43.394Z,14.33
2019-05-02T05:40:13.393Z,13.80
2019-05-02T05:42:42.750Z,13.60
2019-05-02T05:45:13.983Z,12.93
2019-05-02T05:47:43.629Z,13.67
2019-05-02T05:50:12.795Z,12.20
2019-05-02T05:52:42.717Z,12.60
2019-05-02T05:55:12.770Z,11.77
2019-05-02T05:57:42.847Z,13.17
2019-05-02T06:00:18.653Z,11.87
2019-05-02T06:02:56.700Z,11.67
2019-05-02T06:05:24.263Z,10.67
2019-05-02T06:07:57.528Z,11.87
2019-05-02T06:10:27.593Z,12.00
2019-05-02T06:17:17.675Z,11.43
2019-05-02T06:19:53.692Z,12.13
2019-05-02T06:22:24.439Z,11.53
2019-05-02T06:24:52.874Z,11.00
2019-05-02T06:27:26.038Z,11.57
2019-05-02T06:29:57.382Z,11.83
2019-05-02T06:32:26.965Z,12.33
2019-05-02T06:35:00.811Z,12.27
2019-05-02T06:37:30.330Z,12.10
2019-05-02T06:40:03.133Z,11.10
2019-05-02T06:42:34.621Z,10.73
2019-05-02T06:45:06.164Z,9.93
2019-05-02T06:47:41.346Z,10.47
2019-05-02T06:50:09.566Z,10.30
2019-05-02T06:52:45.828Z,11.00
2019-05-02T06:55:15.286Z,10.23
2019-05-02T06:57:44.894Z,10.73
2019-05-02T07:00:15.226Z,11.17
2019-05-02T07:02:44.445Z,10.00
2019-05-02T07:05:14.056Z,11.10
2019-05-02T07:07:43.660Z,12.27
2019-05-02T07:10:13.492Z,12.60
2019-05-02T07:12:46.158Z,11.37
2019-05-02T07:15:33.600Z,12.07
2019-05-02T07:18:10.736Z,11.90
2019-05-02T07:20:40.768Z,11.43
2019-05-02T07:23:10.523Z,11.87
2019-05-02T07:25:43.909Z,12.43
2019-05-02T07:28:14.163Z,11.43
2019-05-02T07:30:44.480Z,11.33
2019-05-02T07:33:14.047Z,11.37
2019-05-02T07:35:43.560Z,10.50
2019-05-02T07:38:12.726Z,10.40
2019-05-02T07:40:43.343Z,10.80
2019-05-02T07:43:13.556Z,10.20
2019-05-02T07:45:45.428Z,10.30
2019-05-02T07:48:17.744Z,11.30
2019-05-02T07:50:46.499Z,9.07
2019-05-02T07:53:16.358Z,10.40
2019-05-02T07:55:48.935Z,10.37
2019-05-02T07:58:17.353Z,9.63
2019-05-02T08:00:46.619Z,10.90
2019-05-02T08:03:16.335Z,9.90
2019-05-02T08:05:46.057Z,10.10
2019-05-02T08:08:15.513Z,9.60
2019-05-02T08:10:44.638Z,9.10
2019-05-02T08:13:17.460Z,10.37
2019-05-02T08:15:45.650Z,10.83
2019-05-02T08:18:15.721Z,9.90
2019-05-02T08:20:45.362Z,9.93
2019-05-02T08:23:14.731Z,9.83
2019-05-02T08:25:45.469Z,9.47
2019-05-02T08:28:23.607Z,8.83
2019-05-02T08:30:55.727Z,10.17
2019-05-02T08:33:29.409Z,8.97
2019-05-02T08:35:57.568Z,7.83
2019-05-02T08:38:27.370Z,8.57
2019-05-02T08:40:56.806Z,8.70
2019-05-02T08:43:26.057Z,8.60
2019-05-02T08:45:55.445Z,8.33
2019-05-02T08:48:24.884Z,6.73
2019-05-02T08:50:54.634Z,7.03
2019-05-02T08:53:24.556Z,6.83
2019-05-02T08:55:53.882Z,7.50
2019-05-02T08:58:23.246Z,7.07
2019-05-02T09:00:53.122Z,6.83
2019-05-02T09:03:26.029Z,7.23
2019-05-02T09:06:05.654Z,6.90
2019-05-02T09:08:26.952Z,6.27
2019-05-02T09:10:56.739Z,6.57
2019-05-02T09:13:29.391Z,5.43
2019-05-02T09:15:57.005Z,5.90
2019-05-02T09:18:35.027Z,6.53
2019-05-02T09:20:57.333Z,5.57
2019-05-02T09:23:27.558Z,5.20
2019-05-02T09:25:57.402Z,5.23
2019-05-02T09:28:26.608Z,5.70
2019-05-02T09:30:57.508Z,5.50
2019-05-02T09:33:27.526Z,5.40
2019-05-02T09:35:56.993Z,5.73
2019-05-02T09:38:27.048Z,5.80
2019-05-02T09:40:56.400Z,5.60
2019-05-02T09:43:29.266Z,5.80
2019-05-02T09:45:56.927Z,6.60
2019-05-02T09:48:26.918Z,6.23
2019-05-02T09:50:58.096Z,6.33
2019-05-02T09:53:27.542Z,5.90
2019-05-02T09:55:58.041Z,6.80
2019-05-02T09:58:27.532Z,6.90
2019-05-02T10:01:03.064Z,6.50
2019-05-02T10:03:32.162Z,5.90
2019-05-02T10:06:03.080Z,5.63
2019-05-02T10:08:32.760Z,5.90
2019-05-02T10:11:02.774Z,6.33
2019-05-02T10:13:33.755Z,7.10
2019-05-02T10:16:03.298Z,6.20
2019-05-02T10:18:33.105Z,5.80
2019-05-02T10:21:03.111Z,6.00
2019-05-02T10:23:32.785Z,5.97
2019-05-02T10:26:02.884Z,6.13
2019-05-02T10:28:32.154Z,6.07
2019-05-02T10:31:02.326Z,5.83
2019-05-02T10:33:35.824Z,6.13
2019-05-02T10:36:03.013Z,6.33
2019-05-02T10:38:32.653Z,6.83
2019-05-02T10:41:04.833Z,6.70
2019-05-02T10:43:33.182Z,6.90
2019-05-02T10:46:08.367Z,7.80
2019-05-02T10:48:42.123Z,7.83
2019-05-02T10:51:43.431Z,7.87
2019-05-02T10:54:08.557Z,8.40
2019-05-02T10:56:37.647Z,8.23
2019-05-02T10:59:06.880Z,7.43
2019-05-02T11:01:57.085Z,7.60
2019-05-02T11:04:29.303Z,8.97
2019-05-02T11:06:57.787Z,8.53
2019-05-02T11:09:26.883Z,7.93
2019-05-02T11:11:56.467Z,7.87
2019-05-02T11:14:33.771Z,8.47
2019-05-02T11:17:18.471Z,8.23
2019-05-02T11:20:01.933Z,7.80
2019-05-02T11:22:32.155Z,8.80
2019-05-02T11:25:02.014Z,7.87
2019-05-02T11:27:32.893Z,7.40
2019-05-02T11:30:02.922Z,7.87
2019-05-02T11:32:32.751Z,7.83
2019-05-02T11:35:02.964Z,7.93
2019-05-02T11:37:32.949Z,9.13
2019-05-02T11:40:05.799Z,9.83
2019-05-02T11:42:33.248Z,9.37
2019-05-02T11:45:02.870Z,9.50
2019-05-02T11:47:32.859Z,10.40
2019-05-02T11:50:02.581Z,10.50
2019-05-02T11:52:37.225Z,11.00
2019-05-02T11:55:02.707Z,11.60
2019-05-02T11:57:33.162Z,10.97
2019-05-02T12:00:04.954Z,10.00
2019-05-02T12:02:58.018Z,11.07
2019-05-02T12:05:35.539Z,10.20
2019-05-02T12:08:07.719Z,11.67
2019-05-02T12:10:42.543Z,10.17
2019-05-02T12:13:15.926Z,11.07
2019-05-02T12:15:47.069Z,10.83
2019-05-02T12:18:20.491Z,10.70
2019-05-02T12:20:48.034Z,9.50
2019-05-02T12:23:22.637Z,10.23
2019-05-02T12:25:54.479Z,10.03
2019-05-02T12:28:23.547Z,11.30
2019-05-02T12:30:53.384Z,10.77
2019-05-02T12:33:28.714Z,10.23
2019-05-02T12:35:58.075Z,11.80
2019-05-02T12:38:32.302Z,11.10
2019-05-02T12:41:02.667Z,10.60
2019-05-02T12:43:33.850Z,10.83
2019-05-02T12:46:02.993Z,10.37
2019-05-02T12:48:32.853Z,11.17
2019-05-02T12:51:02.398Z,11.30
2019-05-02T12:53:32.622Z,11.77
2019-05-02T12:56:02.285Z,11.63
2019-05-02T12:58:34.185Z,11.80
2019-05-02T13:01:05.620Z,12.70
2019-05-02T13:03:39.240Z,12.73
2019-05-02T13:06:12.167Z,12.90
2019-05-02T13:08:52.476Z,11.40
2019-05-02T13:11:36.873Z,12.77
2019-05-02T13:14:16.811Z,12.37
2019-05-02T13:16:38.332Z,12.77
2019-05-02T13:19:11.952Z,11.23
2019-05-02T13:21:59.369Z,12.10
2019-05-02T13:24:34.544Z,11.77
2019-05-02T13:27:04.601Z,11.30
2019-05-02T13:29:34.618Z,11.07
2019-05-02T13:32:18.720Z,11.43
2019-05-02T13:34:55.500Z,11.33
2019-05-02T13:37:23.472Z,11.60
2019-05-02T13:40:02.813Z,12.90
2019-05-02T13:42:33.593Z,10.47
2019-05-02T13:45:09.391Z,11.53
2019-05-02T13:47:38.461Z,11.37
2019-05-02T13:50:09.174Z,10.60
2019-05-02T13:52:46.603Z,11.13
2019-05-02T13:55:13.455Z,10.93
2019-05-02T13:57:46.826Z,10.90
2019-05-02T14:00:16.111Z,10.57
2019-05-02T14:02:46.329Z,11.33
2019-05-02T14:05:16.690Z,10.93
2019-05-02T14:07:54.303Z,10.57
2019-05-02T14:10:39.109Z,10.30
2019-05-02T14:13:03.349Z,11.00
2019-05-02T14:15:39.028Z,10.70
2019-05-02T14:18:08.547Z,10.43
2019-05-02T14:20:37.645Z,10.33
2019-05-02T14:23:06.977Z,9.70
2019-05-02T14:25:36.594Z,9.93
2019-05-02T14:28:08.483Z,9.27
2019-05-02T14:30:43.313Z,8.77
2019-05-02T14:33:15.872Z,9.70
2019-05-02T14:35:45.690Z,9.43
2019-05-02T14:38:15.922Z,7.50
2019-05-02T14:40:57.461Z,9.33
2019-05-02T14:43:47.853Z,9.33
2019-05-02T14:46:17.860Z,9.13
2019-05-02T14:48:46.818Z,9.60
2019-05-02T14:51:21.340Z,9.77
2019-05-02T14:53:47.842Z,10.30
2019-05-02T14:56:25.229Z,9.27
2019-05-02T14:58:54.334Z,10.73
2019-05-02T15:01:26.127Z,9.83
2019-05-02T15:03:58.297Z,10.67
2019-05-02T15:06:25.612Z,9.23
2019-05-02T15:08:55.195Z,8.73
2019-05-02T15:11:30.733Z,9.53
2019-05-02T15:13:55.213Z,10.03
2019-05-02T15:16:39.663Z,9.60
2019-05-02T15:18:57.445Z,8.50
2019-05-02T15:21:42.217Z,9.10
2019-05-02T15:24:12.000Z,8.80
2019-05-02T15:26:41.847Z,9.00
2019-05-02T15:29:18.828Z,8.40
2019-05-02T15:31:47.340Z,5.50
2019-05-02T15:34:25.844Z,3.30
2019-05-02T15:36:55.173Z,2.20
2019-05-02T15:41:55.389Z,1.50
2019-05-02T15:44:26.968Z,1.40
2019-05-02T15:46:58.528Z,1.80
2019-05-02T15:49:26.523Z,1.60
2019-05-02T15:51:55.983Z,1.30
2019-05-02T15:54:25.253Z,1.23
2019-05-02T15:57:05.556Z,1.70
2019-05-02T15:59:37.615Z,1.00
2019-05-02T16:02:08.330Z,0.97
2019-05-02T16:04:39.419Z,1.00
2019-05-02T16:07:09.004Z,0.80
2019-05-02T16:09:38.095Z,0.73
2019-05-02T16:12:09.758Z,0.90
2019-05-02T16:14:38.848Z,1.00
2019-05-02T16:17:08.198Z,1.40
2019-05-02T16:19:42.828Z,1.73
2019-05-02T16:25:24.497Z,2.30
2019-05-02T16:27:52.844Z,2.10
2019-05-02T16:30:23.977Z,2.27
2019-05-02T16:32:55.944Z,2.23
2019-05-02T16:35:26.544Z,2.20
2019-05-02T16:37:56.094Z,2.20
2019-05-02T16:40:29.798Z,2.80
2019-05-02T16:42:57.256Z,2.33
2019-05-02T16:45:26.621Z,2.27
2019-05-02T16:48:00.598Z,2.00
2019-05-02T16:50:31.925Z,2.03
2019-05-02T16:52:58.683Z,1.87
2019-05-02T16:55:27.742Z,2.30
2019-05-02T16:58:05.237Z,2.27
2019-05-02T17:00:29.212Z,3.30
2019-05-02T17:02:58.534Z,2.27
2019-05-02T17:05:27.812Z,2.93
2019-05-02T17:08:22.561Z,2.70
2019-05-02T17:11:02.093Z,3.80
2019-05-02T17:13:34.207Z,3.07
2019-05-02T17:16:06.934Z,3.60
2019-05-02T17:18:34.575Z,3.03
2019-05-02T17:21:05.076Z,4.00
2019-05-02T17:23:37.390Z,3.13
2019-05-02T17:26:05.504Z,2.70
2019-05-02T17:28:38.047Z,2.83
2019-05-02T17:31:10.796Z,2.97
2019-05-02T17:33:36.764Z,3.57
2019-05-02T17:36:06.144Z,2.60
2019-05-02T17:38:35.425Z,4.20
2019-05-02T17:41:07.902Z,3.23
2019-05-02T17:43:37.464Z,3.00
2019-05-02T17:46:07.543Z,3.20
2019-05-02T17:48:39.161Z,2.93
2019-05-02T17:51:14.070Z,4.30
2019-05-02T17:53:49.516Z,3.33
2019-05-02T17:56:20.443Z,3.37
2019-05-02T17:58:53.311Z,3.47
2019-05-02T18:01:21.769Z,6.20
2019-05-02T18:03:52.022Z,4.90
2019-05-02T18:06:32.391Z,4.30
2019-05-02T18:08:55.245Z,3.50
2019-05-02T18:11:23.754Z,3.47
2019-05-02T18:13:52.866Z,3.60
2019-05-02T18:16:22.041Z,3.80
2019-05-02T18:18:52.158Z,3.63
2019-05-02T18:21:25.502Z,2.97
2019-05-02T18:23:57.255Z,3.07
2019-05-02T18:26:24.960Z,3.70
2019-05-02T18:28:57.119Z,3.37
2019-05-02T18:31:25.460Z,3.80
2019-05-02T18:33:54.836Z,4.03
2019-05-02T18:36:26.902Z,3.27
2019-05-02T18:39:00.440Z,2.90
2019-05-02T18:41:27.011Z,2.67
2019-05-02T18:43:56.815Z,3.43
2019-05-02T18:46:26.715Z,3.10
2019-05-02T18:48:56.527Z,3.27
2019-05-02T18:51:26.301Z,3.63
2019-05-02T18:53:58.161Z,3.90
2019-05-02T18:56:27.765Z,3.10
2019-05-02T18:58:57.519Z,3.07
2019-05-02T19:01:26.865Z,3.27
2019-05-02T19:03:58.955Z,3.07
2019-05-02T19:06:33.189Z,3.03
2019-05-02T19:09:05.415Z,3.17
2019-05-02T19:11:35.496Z,3.20
2019-05-02T19:14:08.794Z,3.10
2019-05-02T19:16:39.104Z,2.77
2019-05-02T19:19:12.675Z,2.33
2019-05-02T19:21:45.133Z,2.73
2019-05-02T19:24:27.342Z,3.30
2019-05-02T19:27:13.641Z,2.90
2019-05-02T19:29:48.075Z,3.40
2019-05-02T19:32:17.114Z,3.90
2019-05-02T19:35:05.424Z,3.43
2019-05-02T19:37:44.607Z,2.43
2019-05-02T19:40:20.036Z,2.37
2019-05-02T19:42:57.310Z,2.40
2019-05-02T19:45:32.582Z,2.60
2019-05-02T19:48:09.873Z,2.53
2019-05-02T19:50:53.456Z,2.00
2019-05-02T19:53:32.253Z,2.23
2019-05-02T19:56:12.896Z,2.10
2019-05-02T19:58:46.819Z,2.10
2019-05-02T20:01:28.938Z,2.03
2019-05-02T20:04:32.739Z,2.00
2019-05-02T20:10:08.684Z,1.90
2019-05-02T20:12:47.910Z,2.10
2019-05-02T20:15:27.365Z,2.73
2019-05-02T20:18:16.747Z,2.13
2019-05-02T20:21:04.356Z,2.60
2019-05-02T20:23:57.212Z,2.87
2019-05-02T20:26:58.520Z,2.00
2019-05-02T20:29:37.206Z,2.27
2019-05-02T20:32:21.923Z,1.70
2019-05-02T20:35:08.817Z,1.90
2019-05-02T20:38:07.766Z,2.07
2019-05-02T20:40:47.157Z,2.30
2019-05-02T20:43:36.165Z,1.97
2019-05-02T20:46:21.853Z,2.37
2019-05-02T20:49:16.689Z,2.13
2019-05-02T20:52:14.081Z,2.37
2019-05-02T20:58:26.105Z,1.70
2019-05-02T21:01:06.185Z,2.03
2019-05-02T21:03:32.792Z,2.00
2019-05-02T21:06:40.091Z,1.90
2019-05-02T21:09:33.571Z,2.00
2019-05-02T21:12:06.009Z,1.63
2019-05-02T21:14:35.349Z,1.80
2019-05-02T21:17:05.035Z,2.40
2019-05-02T21:19:34.392Z,1.80
2019-05-02T21:22:08.753Z,1.60
2019-05-02T21:24:38.144Z,1.73
2019-05-02T21:27:08.427Z,1.60
2019-05-02T21:29:37.529Z,1.73
2019-05-02T21:32:11.918Z,1.90
2019-05-02T21:34:43.589Z,1.90
2019-05-02T21:37:14.885Z,1.63
2019-05-02T21:39:45.309Z,1.83
2019-05-02T21:42:14.675Z,2.00
2019-05-02T21:44:44.129Z,1.90
2019-05-02T21:47:16.257Z,1.87
2019-05-02T21:49:58.049Z,1.87
2019-05-02T21:53:05.020Z,1.80
2019-05-02T21:55:49.562Z,1.80
2019-05-02T21:58:19.095Z,1.80
2019-05-02T22:01:38.094Z,2.00
2019-05-02T22:07:39.335Z,1.67
2019-05-02T22:13:28.728Z,2.33
2019-05-02T22:15:58.400Z,1.67
2019-05-02T22:18:28.213Z,1.80
2019-05-02T22:20:57.683Z,2.50
2019-05-02T22:23:26.863Z,2.30
2019-05-02T22:28:49.819Z,1.50
2019-05-02T22:31:19.240Z,2.00
2019-05-02T22:37:18.402Z,1.80
2019-05-02T22:39:52.761Z,1.93
2019-05-02T22:42:22.545Z,1.73
2019-05-02T22:44:51.681Z,2.00
2019-05-02T22:47:22.712Z,1.70
2019-05-02T22:49:52.072Z,2.00
2019-05-02T22:52:21.883Z,1.80
2019-05-02T22:54:52.266Z,2.50
2019-05-02T22:57:22.531Z,2.50
2019-05-02T22:59:51.815Z,1.60
2019-05-02T23:02:21.936Z,1.93
2019-05-02T23:04:52.664Z,1.93
2019-05-02T23:07:22.937Z,1.70
2019-05-02T23:09:55.762Z,1.63
2019-05-02T23:12:25.420Z,1.90
2019-05-02T23:14:54.504Z,1.93
2019-05-02T23:17:24.447Z,1.97
2019-05-02T23:19:54.223Z,2.00
2019-05-02T23:22:24.032Z,1.83
2019-05-02T23:25:17.399Z,2.17
2019-05-02T23:30:57.163Z,2.20
2019-05-02T23:33:29.396Z,2.00
2019-05-02T23:35:58.527Z,1.40
2019-05-02T23:38:41.520Z,1.60
2019-05-02T23:41:19.824Z,1.53
2019-05-02T23:43:49.257Z,2.10
2019-05-02T23:46:18.764Z,1.33
2019-05-02T23:48:48.459Z,1.53
2019-05-02T23:51:17.635Z,1.90
2019-05-02T23:53:46.964Z,1.37
2019-05-02T23:56:16.511Z,1.37
2019-05-02T23:58:49.416Z,1.93
